sensor_id;sensor_type;location;lat;lon;timestamp;temperature;humidity
29721;DHT22;23665;51.044;3.748;2022-10-04T00:01:51;13.00;99.90
29721;DHT22;23665;51.044;3.748;2022-10-04T00:07:02;13.00;99.90
29721;DHT22;23665;51.044;3.748;2022-10-04T00:09:33;12.90;99.90
29721;DHT22;23665;51.044;3.748;2022-10-04T00:12:02;12.70;99.90
29721;DHT22;23665;51.044;3.748;2022-10-04T00:14:32;12.60;99.90
29721;DHT22;23665;51.044;3.748;2022-10-04T00:17:11;12.60;99.90
29721;DHT22;23665;51.044;3.748;2022-10-04T00:19:47;12.50;99.90
29721;DHT22;23665;51.044;3.748;2022-10-04T00:22:15;12.50;99.90
29721;DHT22;23665;51.044;3.748;2022-10-04T00:27:38;12.40;99.90
29721;DHT22;23665;51.044;3.748;2022-10-04T00:40:38;12.40;99.90
29721;DHT22;23665;51.044;3.748;2022-10-04T00:43:11;12.50;99.90
29721;DHT22;23665;51.044;3.748;2022-10-04T00:45:57;12.50;99.90
29721;DHT22;23665;51.044;3.748;2022-10-04T00:51:14;12.50;99.90
29721;DHT22;23665;51.044;3.748;2022-10-04T00:53:53;12.50;99.90
29721;DHT22;23665;51.044;3.748;2022-10-04T00:56:46;12.50;99.90
29721;DHT22;23665;51.044;3.748;2022-10-04T00:59:38;12.50;99.90
29721;DHT22;23665;51.044;3.748;2022-10-04T01:04:59;12.40;99.90
29721;DHT22;23665;51.044;3.748;2022-10-04T01:07:37;12.40;99.90
29721;DHT22;23665;51.044;3.748;2022-10-04T01:10:10;12.20;99.90
29721;DHT22;23665;51.044;3.748;2022-10-04T01:15:28;12.10;99.90
29721;DHT22;23665;51.044;3.748;2022-10-04T01:26:04;12.10;99.90
29721;DHT22;23665;51.044;3.748;2022-10-04T01:28:32;12.20;99.90
29721;DHT22;23665;51.044;3.748;2022-10-04T01:30:58;12.20;99.90
29721;DHT22;23665;51.044;3.748;2022-10-04T01:33:24;12.40;99.90
29721;DHT22;23665;51.044;3.748;2022-10-04T01:35:50;12.70;99.90
29721;DHT22;23665;51.044;3.748;2022-10-04T01:38:16;12.70;99.90
29721;DHT22;23665;51.044;3.748;2022-10-04T01:40:47;12.60;99.90
29721;DHT22;23665;51.044;3.748;2022-10-04T01:43:19;12.40;99.90
29721;DHT22;23665;51.044;3.748;2022-10-04T01:45:59;12.30;99.90
29721;DHT22;23665;51.044;3.748;2022-10-04T01:48:33;12.40;99.90
29721;DHT22;23665;51.044;3.748;2022-10-04T01:51:26;12.30;99.90
29721;DHT22;23665;51.044;3.748;2022-10-04T01:54:17;12.20;99.90
29721;DHT22;23665;51.044;3.748;2022-10-04T01:56:52;12.10;99.90
29721;DHT22;23665;51.044;3.748;2022-10-04T01:59:28;12.00;99.90
29721;DHT22;23665;51.044;3.748;2022-10-04T02:02:03;12.00;99.90
29721;DHT22;23665;51.044;3.748;2022-10-04T02:04:33;11.90;99.90
29721;DHT22;23665;51.044;3.748;2022-10-04T02:07:01;12.00;99.90
29721;DHT22;23665;51.044;3.748;2022-10-04T02:09:34;11.90;99.90
29721;DHT22;23665;51.044;3.748;2022-10-04T02:12:03;11.80;99.90
29721;DHT22;23665;51.044;3.748;2022-10-04T02:14:31;11.90;99.90
29721;DHT22;23665;51.044;3.748;2022-10-04T02:17:00;11.80;99.90
29721;DHT22;23665;51.044;3.748;2022-10-04T02:19:33;11.90;99.90
29721;DHT22;23665;51.044;3.748;2022-10-04T02:22:02;11.80;99.90
29721;DHT22;23665;51.044;3.748;2022-10-04T02:24:31;11.80;99.90
29721;DHT22;23665;51.044;3.748;2022-10-04T02:26:57;11.80;99.90
29721;DHT22;23665;51.044;3.748;2022-10-04T02:29:25;11.90;99.90
29721;DHT22;23665;51.044;3.748;2022-10-04T02:31:51;11.80;99.90
29721;DHT22;23665;51.044;3.748;2022-10-04T02:34:36;11.80;99.90
29721;DHT22;23665;51.044;3.748;2022-10-04T02:37:03;11.80;99.90
29721;DHT22;23665;51.044;3.748;2022-10-04T02:39:39;11.80;99.90
29721;DHT22;23665;51.044;3.748;2022-10-04T02:42:21;11.70;99.90
29721;DHT22;23665;51.044;3.748;2022-10-04T02:45:11;11.70;99.90
29721;DHT22;23665;51.044;3.748;2022-10-04T02:47:47;11.80;99.90
29721;DHT22;23665;51.044;3.748;2022-10-04T02:50:38;11.60;99.90
29721;DHT22;23665;51.044;3.748;2022-10-04T02:53:18;11.70;99.90
29721;DHT22;23665;51.044;3.748;2022-10-04T02:55:47;11.70;99.90
29721;DHT22;23665;51.044;3.748;2022-10-04T02:58:16;11.60;99.90
29721;DHT22;23665;51.044;3.748;2022-10-04T03:00:47;11.60;99.90
29721;DHT22;23665;51.044;3.748;2022-10-04T03:03:28;11.70;99.90
29721;DHT22;23665;51.044;3.748;2022-10-04T03:06:07;11.70;99.90
29721;DHT22;23665;51.044;3.748;2022-10-04T03:11:09;11.90;99.90
29721;DHT22;23665;51.044;3.748;2022-10-04T03:13:37;11.80;99.90
29721;DHT22;23665;51.044;3.748;2022-10-04T03:16:04;11.80;99.90
29721;DHT22;23665;51.044;3.748;2022-10-04T03:18:30;11.90;99.90
29721;DHT22;23665;51.044;3.748;2022-10-04T03:20:59;11.90;99.90
29721;DHT22;23665;51.044;3.748;2022-10-04T03:23:29;11.90;99.90
29721;DHT22;23665;51.044;3.748;2022-10-04T03:26:03;11.70;99.90
29721;DHT22;23665;51.044;3.748;2022-10-04T03:28:30;11.70;99.90
29721;DHT22;23665;51.044;3.748;2022-10-04T03:30:56;11.70;99.90
29721;DHT22;23665;51.044;3.748;2022-10-04T03:33:24;11.60;99.90
29721;DHT22;23665;51.044;3.748;2022-10-04T03:35:53;11.70;99.90
29721;DHT22;23665;51.044;3.748;2022-10-04T03:38:20;11.80;99.90
29721;DHT22;23665;51.044;3.748;2022-10-04T03:40:54;11.80;99.90
29721;DHT22;23665;51.044;3.748;2022-10-04T03:43:23;11.90;99.90
29721;DHT22;23665;51.044;3.748;2022-10-04T03:45:51;11.90;99.90
29721;DHT22;23665;51.044;3.748;2022-10-04T03:48:35;11.90;99.90
29721;DHT22;23665;51.044;3.748;2022-10-04T03:51:05;11.90;99.90
29721;DHT22;23665;51.044;3.748;2022-10-04T03:53:41;11.90;99.90
29721;DHT22;23665;51.044;3.748;2022-10-04T03:56:21;11.90;99.90
29721;DHT22;23665;51.044;3.748;2022-10-04T03:58:49;11.70;99.90
29721;DHT22;23665;51.044;3.748;2022-10-04T04:03:58;11.40;99.90
29721;DHT22;23665;51.044;3.748;2022-10-04T04:06:36;11.40;99.90
29721;DHT22;23665;51.044;3.748;2022-10-04T04:09:05;11.40;99.90
29721;DHT22;23665;51.044;3.748;2022-10-04T04:11:32;11.30;99.90
29721;DHT22;23665;51.044;3.748;2022-10-04T04:14:25;11.40;99.90
29721;DHT22;23665;51.044;3.748;2022-10-04T04:16:53;11.60;99.90
29721;DHT22;23665;51.044;3.748;2022-10-04T04:19:22;11.70;99.90
29721;DHT22;23665;51.044;3.748;2022-10-04T04:21:52;11.80;99.90
29721;DHT22;23665;51.044;3.748;2022-10-04T04:24:24;11.80;99.90
29721;DHT22;23665;51.044;3.748;2022-10-04T04:26:57;11.80;99.90
29721;DHT22;23665;51.044;3.748;2022-10-04T04:29:45;11.70;99.90
29721;DHT22;23665;51.044;3.748;2022-10-04T04:32:22;11.60;99.90
29721;DHT22;23665;51.044;3.748;2022-10-04T04:35:00;11.60;99.90
29721;DHT22;23665;51.044;3.748;2022-10-04T04:37:37;11.60;99.90
29721;DHT22;23665;51.044;3.748;2022-10-04T04:40:20;11.50;99.90
29721;DHT22;23665;51.044;3.748;2022-10-04T04:42:48;11.40;99.90
29721;DHT22;23665;51.044;3.748;2022-10-04T04:45:19;11.20;99.90
29721;DHT22;23665;51.044;3.748;2022-10-04T04:47:49;11.20;99.90
29721;DHT22;23665;51.044;3.748;2022-10-04T04:50:25;11.20;99.90
29721;DHT22;23665;51.044;3.748;2022-10-04T04:52:58;11.10;99.90
29721;DHT22;23665;51.044;3.748;2022-10-04T04:55:32;11.10;99.90
29721;DHT22;23665;51.044;3.748;2022-10-04T04:57:59;11.00;99.90
29721;DHT22;23665;51.044;3.748;2022-10-04T05:00:34;10.90;99.90
29721;DHT22;23665;51.044;3.748;2022-10-04T05:03:02;10.80;99.90
29721;DHT22;23665;51.044;3.748;2022-10-04T05:05:33;10.80;99.90
29721;DHT22;23665;51.044;3.748;2022-10-04T05:08:21;11.30;99.90
29721;DHT22;23665;51.044;3.748;2022-10-04T05:10:54;11.50;99.90
29721;DHT22;23665;51.044;3.748;2022-10-04T05:13:26;11.60;99.90
29721;DHT22;23665;51.044;3.748;2022-10-04T05:15:57;11.70;99.90
29721;DHT22;23665;51.044;3.748;2022-10-04T05:18:31;11.70;99.90
29721;DHT22;23665;51.044;3.748;2022-10-04T05:21:16;11.70;99.90
29721;DHT22;23665;51.044;3.748;2022-10-04T05:23:44;11.70;99.90
29721;DHT22;23665;51.044;3.748;2022-10-04T05:26:12;11.70;99.90
29721;DHT22;23665;51.044;3.748;2022-10-04T05:28:39;11.70;99.90
29721;DHT22;23665;51.044;3.748;2022-10-04T05:34:14;11.60;99.90
29721;DHT22;23665;51.044;3.748;2022-10-04T05:36:57;11.60;99.90
29721;DHT22;23665;51.044;3.748;2022-10-04T05:39:38;11.70;99.90
29721;DHT22;23665;51.044;3.748;2022-10-04T05:44:49;11.70;99.90
29721;DHT22;23665;51.044;3.748;2022-10-04T05:47:25;11.80;99.90
29721;DHT22;23665;51.044;3.748;2022-10-04T05:49:54;11.80;99.90
29721;DHT22;23665;51.044;3.748;2022-10-04T05:52:35;11.60;99.90
29721;DHT22;23665;51.044;3.748;2022-10-04T06:00:20;11.40;99.90
29721;DHT22;23665;51.044;3.748;2022-10-04T06:05:49;11.50;99.90
29721;DHT22;23665;51.044;3.748;2022-10-04T06:14:04;11.70;99.90
29721;DHT22;23665;51.044;3.748;2022-10-04T06:20:26;11.80;99.90
29721;DHT22;23665;51.044;3.748;2022-10-04T06:22:46;11.70;99.90
29721;DHT22;23665;51.044;3.748;2022-10-04T06:28:15;11.60;99.90
29721;DHT22;23665;51.044;3.748;2022-10-04T06:48:19;12.00;99.90
29721;DHT22;23665;51.044;3.748;2022-10-04T06:53:38;12.10;99.90
29721;DHT22;23665;51.044;3.748;2022-10-04T07:01:31;12.60;99.90
29721;DHT22;23665;51.044;3.748;2022-10-04T07:09:59;13.00;99.90
29721;DHT22;23665;51.044;3.748;2022-10-04T07:12:26;13.00;99.90
29721;DHT22;23665;51.044;3.748;2022-10-04T07:14:56;13.10;99.90
29721;DHT22;23665;51.044;3.748;2022-10-04T07:17:40;13.20;99.90
29721;DHT22;23665;51.044;3.748;2022-10-04T07:20:19;13.30;99.90
29721;DHT22;23665;51.044;3.748;2022-10-04T07:22:54;13.40;99.90
29721;DHT22;23665;51.044;3.748;2022-10-04T07:25:26;13.50;99.90
29721;DHT22;23665;51.044;3.748;2022-10-04T07:31:31;13.60;99.90
29721;DHT22;23665;51.044;3.748;2022-10-04T07:34:13;13.50;99.90
29721;DHT22;23665;51.044;3.748;2022-10-04T07:36:55;13.30;99.90
29721;DHT22;23665;51.044;3.748;2022-10-04T07:42:25;13.30;99.90
29721;DHT22;23665;51.044;3.748;2022-10-04T07:47:28;13.70;99.90
29721;DHT22;23665;51.044;3.748;2022-10-04T07:49:54;13.80;99.90
29721;DHT22;23665;51.044;3.748;2022-10-04T07:55:14;13.90;99.90
29721;DHT22;23665;51.044;3.748;2022-10-04T07:58:12;14.00;99.90
29721;DHT22;23665;51.044;3.748;2022-10-04T08:00:57;14.10;99.90
29721;DHT22;23665;51.044;3.748;2022-10-04T08:06:37;14.40;99.90
29721;DHT22;23665;51.044;3.748;2022-10-04T08:09:22;14.50;99.90
29721;DHT22;23665;51.044;3.748;2022-10-04T08:12:19;14.50;99.90
29721;DHT22;23665;51.044;3.748;2022-10-04T08:14:52;14.70;99.90
29721;DHT22;23665;51.044;3.748;2022-10-04T08:25:25;14.70;99.90
29721;DHT22;23665;51.044;3.748;2022-10-04T08:31:30;14.80;99.90
29721;DHT22;23665;51.044;3.748;2022-10-04T08:34:06;14.90;99.90
29721;DHT22;23665;51.044;3.748;2022-10-04T08:48:21;15.40;99.90
29721;DHT22;23665;51.044;3.748;2022-10-04T08:51:05;15.60;99.90
29721;DHT22;23665;51.044;3.748;2022-10-04T08:59:33;16.00;99.90
29721;DHT22;23665;51.044;3.748;2022-10-04T09:05:07;15.90;99.90
29721;DHT22;23665;51.044;3.748;2022-10-04T09:08:21;16.00;99.90
29721;DHT22;23665;51.044;3.748;2022-10-04T09:16:47;16.10;99.90
29721;DHT22;23665;51.044;3.748;2022-10-04T09:19:19;16.30;99.90
29721;DHT22;23665;51.044;3.748;2022-10-04T09:30:13;16.60;99.90
29721;DHT22;23665;51.044;3.748;2022-10-04T09:44:47;16.90;99.90
29721;DHT22;23665;51.044;3.748;2022-10-04T09:59:15;17.50;92.60
29721;DHT22;23665;51.044;3.748;2022-10-04T10:04:04;17.80;79.20
29721;DHT22;23665;51.044;3.748;2022-10-04T10:17:26;18.00;82.00
29721;DHT22;23665;51.044;3.748;2022-10-04T10:25:43;18.60;56.20
29721;DHT22;23665;51.044;3.748;2022-10-04T10:28:20;18.30;63.70
29721;DHT22;23665;51.044;3.748;2022-10-04T10:51:00;19.20;38.70
29721;DHT22;23665;51.044;3.748;2022-10-04T11:04:44;19.30;42.10
29721;DHT22;23665;51.044;3.748;2022-10-04T11:12:54;19.10;47.50
29721;DHT22;23665;51.044;3.748;2022-10-04T11:37:21;20.10;14.60
29721;DHT22;23665;51.044;3.748;2022-10-04T11:53:33;20.30;13.90
29721;DHT22;23665;51.044;3.748;2022-10-04T11:59:04;20.20;24.20
29721;DHT22;23665;51.044;3.748;2022-10-04T12:10:33;20.40;20.90
29721;DHT22;23665;51.044;3.748;2022-10-04T12:13:32;20.50;19.40
29721;DHT22;23665;51.044;3.748;2022-10-04T12:21:53;20.60;16.90
29721;DHT22;23665;51.044;3.748;2022-10-04T12:30:21;20.60;23.50
29721;DHT22;23665;51.044;3.748;2022-10-04T12:52:32;21.80;1.00
29721;DHT22;23665;51.044;3.748;2022-10-04T12:58:06;21.50;8.50
29721;DHT22;23665;51.044;3.748;2022-10-04T13:00:40;21.50;1.00
29721;DHT22;23665;51.044;3.748;2022-10-04T13:03:30;21.40;5.20
29721;DHT22;23665;51.044;3.748;2022-10-04T13:14:40;21.70;1.00
29721;DHT22;23665;51.044;3.748;2022-10-04T13:25:42;21.20;8.60
29721;DHT22;23665;51.044;3.748;2022-10-04T13:31:06;20.70;19.90
29721;DHT22;23665;51.044;3.748;2022-10-04T13:36:05;20.90;29.10
29721;DHT22;23665;51.044;3.748;2022-10-04T13:39:14;21.00;20.20
29721;DHT22;23665;51.044;3.748;2022-10-04T13:41:56;21.10;19.30
29721;DHT22;23665;51.044;3.748;2022-10-04T14:18:39;21.10;19.00
29721;DHT22;23665;51.044;3.748;2022-10-04T14:24:41;21.10;23.50
29721;DHT22;23665;51.044;3.748;2022-10-04T14:33:03;21.30;17.60
29721;DHT22;23665;51.044;3.748;2022-10-04T14:44:39;21.30;19.20
29721;DHT22;23665;51.044;3.748;2022-10-04T14:49:58;21.40;15.70
29721;DHT22;23665;51.044;3.748;2022-10-04T14:58:34;20.90;31.30
29721;DHT22;23665;51.044;3.748;2022-10-04T15:06:40;20.80;38.40
29721;DHT22;23665;51.044;3.748;2022-10-04T15:12:00;20.50;57.70
29721;DHT22;23665;51.044;3.748;2022-10-04T15:17:00;20.70;46.70
29721;DHT22;23665;51.044;3.748;2022-10-04T15:20:04;20.80;46.30
29721;DHT22;23665;51.044;3.748;2022-10-04T15:22:39;20.70;48.20
29721;DHT22;23665;51.044;3.748;2022-10-04T15:28:34;20.70;45.10
29721;DHT22;23665;51.044;3.748;2022-10-04T15:31:22;20.60;35.60
29721;DHT22;23665;51.044;3.748;2022-10-04T15:53:27;20.20;57.70
29721;DHT22;23665;51.044;3.748;2022-10-04T16:01:36;20.20;56.80
29721;DHT22;23665;51.044;3.748;2022-10-04T16:10:21;20.00;72.90
29721;DHT22;23665;51.044;3.748;2022-10-04T16:15:41;19.90;82.20
29721;DHT22;23665;51.044;3.748;2022-10-04T16:18:39;19.80;86.00
29721;DHT22;23665;51.044;3.748;2022-10-04T16:30:13;19.50;99.30
29721;DHT22;23665;51.044;3.748;2022-10-04T16:33:00;19.60;99.00
29721;DHT22;23665;51.044;3.748;2022-10-04T16:35:48;19.70;96.30
29721;DHT22;23665;51.044;3.748;2022-10-04T16:38:25;19.70;96.10
29721;DHT22;23665;51.044;3.748;2022-10-04T16:41:06;19.70;98.20
29721;DHT22;23665;51.044;3.748;2022-10-04T16:43:34;19.50;99.90
29721;DHT22;23665;51.044;3.748;2022-10-04T16:48:56;19.70;99.00
29721;DHT22;23665;51.044;3.748;2022-10-04T16:57:09;19.80;96.10
29721;DHT22;23665;51.044;3.748;2022-10-04T17:10:16;19.70;99.90
29721;DHT22;23665;51.044;3.748;2022-10-04T17:13:00;19.60;99.90
29721;DHT22;23665;51.044;3.748;2022-10-04T17:21:02;19.40;99.90
29721;DHT22;23665;51.044;3.748;2022-10-04T17:28:55;19.30;99.90
29721;DHT22;23665;51.044;3.748;2022-10-04T17:34:43;19.30;99.90
29721;DHT22;23665;51.044;3.748;2022-10-04T17:37:25;19.30;99.90
29721;DHT22;23665;51.044;3.748;2022-10-04T17:42:44;19.20;99.90
29721;DHT22;23665;51.044;3.748;2022-10-04T17:48:07;19.10;99.90
29721;DHT22;23665;51.044;3.748;2022-10-04T17:54:17;19.10;99.90
29721;DHT22;23665;51.044;3.748;2022-10-04T17:59:37;19.10;99.90
29721;DHT22;23665;51.044;3.748;2022-10-04T18:04:35;19.10;99.90
29721;DHT22;23665;51.044;3.748;2022-10-04T18:07:23;19.10;99.90
29721;DHT22;23665;51.044;3.748;2022-10-04T18:09:52;19.10;99.90
29721;DHT22;23665;51.044;3.748;2022-10-04T18:12:31;19.20;99.90
29721;DHT22;23665;51.044;3.748;2022-10-04T18:15:24;19.20;99.90
29721;DHT22;23665;51.044;3.748;2022-10-04T18:23:27;18.90;99.90
29721;DHT22;23665;51.044;3.748;2022-10-04T18:25:57;18.90;99.90
29721;DHT22;23665;51.044;3.748;2022-10-04T18:28:24;18.80;99.90
29721;DHT22;23665;51.044;3.748;2022-10-04T18:34:13;18.70;99.90
29721;DHT22;23665;51.044;3.748;2022-10-04T18:36:20;18.80;99.90
29721;DHT22;23665;51.044;3.748;2022-10-04T18:39:18;18.80;99.90
29721;DHT22;23665;51.044;3.748;2022-10-04T18:42:20;18.80;99.90
29721;DHT22;23665;51.044;3.748;2022-10-04T18:44:58;18.60;99.90
29721;DHT22;23665;51.044;3.748;2022-10-04T18:47:38;18.70;99.90
29721;DHT22;23665;51.044;3.748;2022-10-04T18:50:23;18.70;99.90
29721;DHT22;23665;51.044;3.748;2022-10-04T18:57:46;20.30;99.90
29721;DHT22;23665;51.044;3.748;2022-10-04T19:00:41;20.60;99.90
29721;DHT22;23665;51.044;3.748;2022-10-04T19:03:46;21.00;99.90
29721;DHT22;23665;51.044;3.748;2022-10-04T19:06:22;21.60;99.90
29721;DHT22;23665;51.044;3.748;2022-10-04T19:11:54;22.30;99.90
29721;DHT22;23665;51.044;3.748;2022-10-04T19:14:33;21.50;99.90
29721;DHT22;23665;51.044;3.748;2022-10-04T19:25:18;20.40;99.90
29721;DHT22;23665;51.044;3.748;2022-10-04T19:27:56;20.50;99.90
29721;DHT22;23665;51.044;3.748;2022-10-04T19:30:58;20.80;99.90
29721;DHT22;23665;51.044;3.748;2022-10-04T19:33:38;20.80;99.90
29721;DHT22;23665;51.044;3.748;2022-10-04T19:42:22;20.20;99.90
29721;DHT22;23665;51.044;3.748;2022-10-04T19:45:10;20.10;99.90
29721;DHT22;23665;51.044;3.748;2022-10-04T19:47:48;20.30;99.90
29721;DHT22;23665;51.044;3.748;2022-10-04T19:53:01;20.10;99.90
29721;DHT22;23665;51.044;3.748;2022-10-04T19:55:39;20.30;99.90
29721;DHT22;23665;51.044;3.748;2022-10-04T19:58:43;20.20;99.90
29721;DHT22;23665;51.044;3.748;2022-10-04T20:01:13;20.10;99.90
29721;DHT22;23665;51.044;3.748;2022-10-04T20:03:40;19.90;93.10
29721;DHT22;23665;51.044;3.748;2022-10-04T20:06:07;19.80;94.80
29721;DHT22;23665;51.044;3.748;2022-10-04T20:08:50;19.50;99.90
29721;DHT22;23665;51.044;3.748;2022-10-04T20:11:27;19.30;99.90
29721;DHT22;23665;51.044;3.748;2022-10-04T20:21:55;18.40;99.90
29721;DHT22;23665;51.044;3.748;2022-10-04T20:24:48;18.30;99.90
29721;DHT22;23665;51.044;3.748;2022-10-04T20:29:58;18.30;99.90
29721;DHT22;23665;51.044;3.748;2022-10-04T20:35:00;18.50;99.90
29721;DHT22;23665;51.044;3.748;2022-10-04T20:45:47;18.20;99.90
29721;DHT22;23665;51.044;3.748;2022-10-04T20:48:21;18.30;99.90
29721;DHT22;23665;51.044;3.748;2022-10-04T20:50:47;18.30;99.90
29721;DHT22;23665;51.044;3.748;2022-10-04T20:53:28;18.30;99.90
29721;DHT22;23665;51.044;3.748;2022-10-04T20:56:27;18.40;99.90
29721;DHT22;23665;51.044;3.748;2022-10-04T20:59:03;18.30;99.90
29721;DHT22;23665;51.044;3.748;2022-10-04T21:01:34;18.20;99.90
29721;DHT22;23665;51.044;3.748;2022-10-04T21:04:27;18.20;99.90
29721;DHT22;23665;51.044;3.748;2022-10-04T21:07:16;18.20;99.90
29721;DHT22;23665;51.044;3.748;2022-10-04T21:09:43;18.20;99.90
29721;DHT22;23665;51.044;3.748;2022-10-04T21:12:30;18.20;99.90
29721;DHT22;23665;51.044;3.748;2022-10-04T21:20:58;18.30;99.90
29721;DHT22;23665;51.044;3.748;2022-10-04T21:23:32;18.20;99.90
29721;DHT22;23665;51.044;3.748;2022-10-04T21:26:20;18.30;99.90
29721;DHT22;23665;51.044;3.748;2022-10-04T21:28:47;18.20;99.90
29721;DHT22;23665;51.044;3.748;2022-10-04T21:31:16;18.20;99.90
29721;DHT22;23665;51.044;3.748;2022-10-04T21:33:42;18.10;99.90
29721;DHT22;23665;51.044;3.748;2022-10-04T21:36:08;18.20;99.90
29721;DHT22;23665;51.044;3.748;2022-10-04T21:38:33;18.10;99.90
29721;DHT22;23665;51.044;3.748;2022-10-04T21:40:59;18.00;99.90
29721;DHT22;23665;51.044;3.748;2022-10-04T21:43:25;18.00;99.90
29721;DHT22;23665;51.044;3.748;2022-10-04T21:45:51;17.90;99.90
29721;DHT22;23665;51.044;3.748;2022-10-04T21:48:16;18.10;99.90
29721;DHT22;23665;51.044;3.748;2022-10-04T21:50:46;18.10;99.90
29721;DHT22;23665;51.044;3.748;2022-10-04T21:53:12;18.00;99.90
29721;DHT22;23665;51.044;3.748;2022-10-04T21:55:38;18.10;99.90
29721;DHT22;23665;51.044;3.748;2022-10-04T21:58:03;17.90;99.90
29721;DHT22;23665;51.044;3.748;2022-10-04T22:00:29;17.90;99.90
29721;DHT22;23665;51.044;3.748;2022-10-04T22:02:55;18.00;99.90
29721;DHT22;23665;51.044;3.748;2022-10-04T22:05:21;18.10;99.90
29721;DHT22;23665;51.044;3.748;2022-10-04T22:07:46;18.10;99.90
29721;DHT22;23665;51.044;3.748;2022-10-04T22:10:12;18.10;99.90
29721;DHT22;23665;51.044;3.748;2022-10-04T22:12:38;18.10;99.90
29721;DHT22;23665;51.044;3.748;2022-10-04T22:15:04;18.10;99.90
29721;DHT22;23665;51.044;3.748;2022-10-04T22:17:30;18.00;99.90
29721;DHT22;23665;51.044;3.748;2022-10-04T22:19:56;18.10;99.90
29721;DHT22;23665;51.044;3.748;2022-10-04T22:22:22;18.00;99.90
29721;DHT22;23665;51.044;3.748;2022-10-04T22:24:47;17.90;99.90
29721;DHT22;23665;51.044;3.748;2022-10-04T22:27:14;17.90;99.90
29721;DHT22;23665;51.044;3.748;2022-10-04T22:29:40;17.90;99.90
29721;DHT22;23665;51.044;3.748;2022-10-04T22:32:12;18.00;99.90
29721;DHT22;23665;51.044;3.748;2022-10-04T22:34:42;18.00;99.90
29721;DHT22;23665;51.044;3.748;2022-10-04T22:37:10;18.00;99.90
29721;DHT22;23665;51.044;3.748;2022-10-04T22:39:36;17.90;99.90
29721;DHT22;23665;51.044;3.748;2022-10-04T22:42:02;18.00;99.90
29721;DHT22;23665;51.044;3.748;2022-10-04T22:46:56;17.70;99.90
29721;DHT22;23665;51.044;3.748;2022-10-04T22:49:24;17.70;99.90
29721;DHT22;23665;51.044;3.748;2022-10-04T22:51:52;17.70;99.90
29721;DHT22;23665;51.044;3.748;2022-10-04T22:54:21;17.80;99.90
29721;DHT22;23665;51.044;3.748;2022-10-04T22:56:47;17.60;99.90
29721;DHT22;23665;51.044;3.748;2022-10-04T22:59:16;17.50;99.90
29721;DHT22;23665;51.044;3.748;2022-10-04T23:01:42;17.60;99.90
29721;DHT22;23665;51.044;3.748;2022-10-04T23:04:23;17.60;99.90
29721;DHT22;23665;51.044;3.748;2022-10-04T23:06:53;17.70;99.90
29721;DHT22;23665;51.044;3.748;2022-10-04T23:09:19;17.80;99.90
29721;DHT22;23665;51.044;3.748;2022-10-04T23:11:45;17.80;99.90
29721;DHT22;23665;51.044;3.748;2022-10-04T23:14:12;17.70;99.90
29721;DHT22;23665;51.044;3.748;2022-10-04T23:16:38;17.70;99.90
29721;DHT22;23665;51.044;3.748;2022-10-04T23:19:11;17.60;99.90
29721;DHT22;23665;51.044;3.748;2022-10-04T23:21:39;17.50;99.90
29721;DHT22;23665;51.044;3.748;2022-10-04T23:24:24;17.50;99.90
29721;DHT22;23665;51.044;3.748;2022-10-04T23:26:54;17.50;99.90
29721;DHT22;23665;51.044;3.748;2022-10-04T23:29:26;17.50;99.90
29721;DHT22;23665;51.044;3.748;2022-10-04T23:31:53;17.50;99.90
29721;DHT22;23665;51.044;3.748;2022-10-04T23:34:28;17.50;99.90
29721;DHT22;23665;51.044;3.748;2022-10-04T23:36:55;17.50;99.90
29721;DHT22;23665;51.044;3.748;2022-10-04T23:39:26;17.40;99.90
29721;DHT22;23665;51.044;3.748;2022-10-04T23:41:56;17.40;99.90
29721;DHT22;23665;51.044;3.748;2022-10-04T23:44:24;17.20;99.90
29721;DHT22;23665;51.044;3.748;2022-10-04T23:46:53;17.20;99.90
29721;DHT22;23665;51.044;3.748;2022-10-04T23:49:19;17.20;99.90
29721;DHT22;23665;51.044;3.748;2022-10-04T23:51:47;17.30;99.90
29721;DHT22;23665;51.044;3.748;2022-10-04T23:54:15;17.40;99.90
29721;DHT22;23665;51.044;3.748;2022-10-04T23:56:43;17.40;99.90
29721;DHT22;23665;51.044;3.748;2022-10-04T23:59:17;17.40;99.90
